sensor_id;sensor_type;location;lat;lon;timestamp;pressure;altitude;pressure_sealevel;temperature;humidity
39363;BME280;25088;43.238;23.110;2023-07-31T00:01:55;96051.56;;;24.15;75.91
39363;BME280;25088;43.238;23.110;2023-07-31T00:04:20;96052.91;;;24.33;76.06
39363;BME280;25088;43.238;23.110;2023-07-31T00:06:46;96030.22;;;24.35;75.21
39363;BME280;25088;43.238;23.110;2023-07-31T00:09:11;96035.47;;;23.56;80.52
39363;BME280;25088;43.238;23.110;2023-07-31T00:11:36;96041.59;;;24.14;76.50
39363;BME280;25088;43.238;23.110;2023-07-31T00:14:02;96031.06;;;24.07;75.69
39363;BME280;25088;43.238;23.110;2023-07-31T00:16:28;96036.78;;;23.98;75.88
39363;BME280;25088;43.238;23.110;2023-07-31T00:18:53;96035.25;;;24.01;75.48
39363;BME280;25088;43.238;23.110;2023-07-31T00:21:18;96036.06;;;23.73;76.29
39363;BME280;25088;43.238;23.110;2023-07-31T00:23:44;96026.31;;;23.67;77.08
39363;BME280;25088;43.238;23.110;2023-07-31T00:26:09;96044.72;;;23.84;77.40
39363;BME280;25088;43.238;23.110;2023-07-31T00:28:35;96040.44;;;23.75;77.14
39363;BME280;25088;43.238;23.110;2023-07-31T00:31:00;96047.09;;;23.70;77.78
39363;BME280;25088;43.238;23.110;2023-07-31T00:33:27;96041.16;;;23.59;78.14
39363;BME280;25088;43.238;23.110;2023-07-31T00:35:52;96047.09;;;23.70;78.03
39363;BME280;25088;43.238;23.110;2023-07-31T00:38:18;96013.09;;;23.52;77.71
39363;BME280;25088;43.238;23.110;2023-07-31T00:40:43;96028.53;;;23.50;77.72
39363;BME280;25088;43.238;23.110;2023-07-31T00:43:09;96026.22;;;23.27;79.26
39363;BME280;25088;43.238;23.110;2023-07-31T00:45:34;96032.75;;;23.19;79.69
39363;BME280;25088;43.238;23.110;2023-07-31T00:48:01;96034.25;;;23.16;80.13
39363;BME280;25088;43.238;23.110;2023-07-31T00:50:26;96033.56;;;23.19;79.60
39363;BME280;25088;43.238;23.110;2023-07-31T00:52:52;96036.34;;;23.19;79.30
39363;BME280;25088;43.238;23.110;2023-07-31T00:55:18;96031.59;;;23.08;80.31
39363;BME280;25088;43.238;23.110;2023-07-31T00:57:45;96017.31;;;23.09;79.86
39363;BME280;25088;43.238;23.110;2023-07-31T01:00:11;96018.00;;;22.94;80.31
39363;BME280;25088;43.238;23.110;2023-07-31T01:02:37;96034.03;;;23.09;79.53
39363;BME280;25088;43.238;23.110;2023-07-31T01:05:03;96012.56;;;22.98;79.53
39363;BME280;25088;43.238;23.110;2023-07-31T01:10:11;96025.44;;;22.90;80.08
39363;BME280;25088;43.238;23.110;2023-07-31T01:12:40;96013.72;;;22.96;79.48
39363;BME280;25088;43.238;23.110;2023-07-31T01:15:08;96021.72;;;22.98;78.73
39363;BME280;25088;43.238;23.110;2023-07-31T01:17:36;96021.25;;;22.96;78.63
39363;BME280;25088;43.238;23.110;2023-07-31T01:20:04;96009.53;;;22.78;78.85
39363;BME280;25088;43.238;23.110;2023-07-31T01:22:48;96029.38;;;22.89;78.26
39363;BME280;25088;43.238;23.110;2023-07-31T01:28:24;96035.28;;;23.12;75.98
39363;BME280;25088;43.238;23.110;2023-07-31T01:30:51;96020.91;;;23.10;75.32
39363;BME280;25088;43.238;23.110;2023-07-31T01:33:17;96016.34;;;23.42;73.54
39363;BME280;25088;43.238;23.110;2023-07-31T01:35:44;96005.28;;;23.58;72.18
39363;BME280;25088;43.238;23.110;2023-07-31T01:38:11;96019.53;;;23.81;70.57
39363;BME280;25088;43.238;23.110;2023-07-31T01:40:37;96017.97;;;23.95;70.16
39363;BME280;25088;43.238;23.110;2023-07-31T01:43:02;96001.28;;;23.83;70.34
39363;BME280;25088;43.238;23.110;2023-07-31T01:45:28;96017.59;;;23.69;71.13
39363;BME280;25088;43.238;23.110;2023-07-31T01:47:54;96013.09;;;23.52;72.42
39363;BME280;25088;43.238;23.110;2023-07-31T01:50:19;96018.16;;;23.62;72.73
39363;BME280;25088;43.238;23.110;2023-07-31T01:52:44;96029.06;;;23.80;71.46
39363;BME280;25088;43.238;23.110;2023-07-31T01:55:10;96031.03;;;23.79;71.09
39363;BME280;25088;43.238;23.110;2023-07-31T01:57:37;96043.66;;;23.89;70.92
39363;BME280;25088;43.238;23.110;2023-07-31T02:00:03;96031.56;;;23.97;69.92
39363;BME280;25088;43.238;23.110;2023-07-31T02:02:28;96014.69;;;23.78;70.27
39363;BME280;25088;43.238;23.110;2023-07-31T02:04:54;96030.59;;;24.05;70.10
39363;BME280;25088;43.238;23.110;2023-07-31T02:07:19;96011.72;;;23.86;69.86
39363;BME280;25088;43.238;23.110;2023-07-31T02:09:45;96026.50;;;23.75;71.61
39363;BME280;25088;43.238;23.110;2023-07-31T02:12:12;96029.56;;;23.57;72.42
39363;BME280;25088;43.238;23.110;2023-07-31T02:14:39;96034.91;;;23.50;73.37
39363;BME280;25088;43.238;23.110;2023-07-31T02:17:05;96027.22;;;23.71;71.32
39363;BME280;25088;43.238;23.110;2023-07-31T02:19:30;96025.59;;;23.58;71.42
39363;BME280;25088;43.238;23.110;2023-07-31T02:21:56;96038.59;;;23.79;71.22
39363;BME280;25088;43.238;23.110;2023-07-31T02:24:21;96036.28;;;23.68;71.01
39363;BME280;25088;43.238;23.110;2023-07-31T02:26:47;96034.44;;;23.48;72.23
39363;BME280;25088;43.238;23.110;2023-07-31T02:29:12;96040.22;;;23.55;72.60
39363;BME280;25088;43.238;23.110;2023-07-31T02:31:37;96031.19;;;23.46;73.04
39363;BME280;25088;43.238;23.110;2023-07-31T02:34:03;96036.31;;;23.44;73.12
39363;BME280;25088;43.238;23.110;2023-07-31T02:36:28;96039.53;;;23.46;72.88
39363;BME280;25088;43.238;23.110;2023-07-31T02:38:54;96037.25;;;23.36;72.88
39363;BME280;25088;43.238;23.110;2023-07-31T02:41:20;96041.88;;;23.32;73.23
39363;BME280;25088;43.238;23.110;2023-07-31T02:43:45;96054.19;;;23.43;72.22
39363;BME280;25088;43.238;23.110;2023-07-31T02:46:11;96048.00;;;23.62;70.77
39363;BME280;25088;43.238;23.110;2023-07-31T02:48:36;96032.22;;;23.54;69.84
39363;BME280;25088;43.238;23.110;2023-07-31T02:51:02;96048.13;;;23.78;69.51
39363;BME280;25088;43.238;23.110;2023-07-31T02:53:27;96049.50;;;23.84;69.93
39363;BME280;25088;43.238;23.110;2023-07-31T02:55:53;96049.88;;;23.70;70.77
39363;BME280;25088;43.238;23.110;2023-07-31T02:58:18;96054.34;;;23.87;70.70
39363;BME280;25088;43.238;23.110;2023-07-31T03:00:44;96053.31;;;24.19;68.53
39363;BME280;25088;43.238;23.110;2023-07-31T03:03:09;96048.03;;;24.02;68.64
39363;BME280;25088;43.238;23.110;2023-07-31T03:05:35;96050.16;;;24.21;68.20
39363;BME280;25088;43.238;23.110;2023-07-31T03:08:01;96044.69;;;24.24;67.73
39363;BME280;25088;43.238;23.110;2023-07-31T03:10:26;96039.47;;;24.23;67.60
39363;BME280;25088;43.238;23.110;2023-07-31T03:12:52;96057.47;;;24.25;67.50
39363;BME280;25088;43.238;23.110;2023-07-31T03:15:17;96057.81;;;24.24;67.52
39363;BME280;25088;43.238;23.110;2023-07-31T03:17:43;96063.09;;;24.13;69.44
39363;BME280;25088;43.238;23.110;2023-07-31T03:20:09;96055.44;;;24.10;69.81
39363;BME280;25088;43.238;23.110;2023-07-31T03:22:34;96051.06;;;24.25;68.32
39363;BME280;25088;43.238;23.110;2023-07-31T03:25:03;96058.69;;;24.40;67.60
39363;BME280;25088;43.238;23.110;2023-07-31T03:27:29;96060.69;;;24.40;67.15
39363;BME280;25088;43.238;23.110;2023-07-31T03:29:54;96057.63;;;24.45;67.13
39363;BME280;25088;43.238;23.110;2023-07-31T03:32:20;96051.09;;;24.53;66.90
39363;BME280;25088;43.238;23.110;2023-07-31T03:34:46;96045.13;;;24.39;66.47
39363;BME280;25088;43.238;23.110;2023-07-31T03:37:11;96055.47;;;24.38;67.22
39363;BME280;25088;43.238;23.110;2023-07-31T03:39:37;96059.59;;;24.44;67.16
39363;BME280;25088;43.238;23.110;2023-07-31T03:42:02;96052.25;;;24.52;66.21
39363;BME280;25088;43.238;23.110;2023-07-31T03:44:28;96058.94;;;24.35;67.41
39363;BME280;25088;43.238;23.110;2023-07-31T03:46:53;96061.97;;;24.30;68.37
39363;BME280;25088;43.238;23.110;2023-07-31T03:49:19;96072.13;;;24.22;68.38
39363;BME280;25088;43.238;23.110;2023-07-31T03:51:44;96072.78;;;24.32;67.42
39363;BME280;25088;43.238;23.110;2023-07-31T03:54:10;96076.28;;;24.29;67.75
39363;BME280;25088;43.238;23.110;2023-07-31T03:56:35;96074.91;;;24.50;66.95
39363;BME280;25088;43.238;23.110;2023-07-31T03:59:01;96083.22;;;24.47;67.31
39363;BME280;25088;43.238;23.110;2023-07-31T04:01:26;96069.56;;;24.58;67.15
39363;BME280;25088;43.238;23.110;2023-07-31T04:03:52;96078.25;;;24.56;66.74
39363;BME280;25088;43.238;23.110;2023-07-31T04:06:17;96088.84;;;24.79;65.56
39363;BME280;25088;43.238;23.110;2023-07-31T04:08:43;96077.25;;;24.77;65.86
39363;BME280;25088;43.238;23.110;2023-07-31T04:11:10;96084.50;;;24.81;64.90
39363;BME280;25088;43.238;23.110;2023-07-31T04:13:35;96093.72;;;24.82;65.62
39363;BME280;25088;43.238;23.110;2023-07-31T04:16:00;96092.88;;;24.81;65.72
39363;BME280;25088;43.238;23.110;2023-07-31T04:18:26;96095.34;;;24.98;64.78
39363;BME280;25088;43.238;23.110;2023-07-31T04:20:51;96086.47;;;25.09;64.63
39363;BME280;25088;43.238;23.110;2023-07-31T04:23:17;96095.03;;;25.32;62.42
39363;BME280;25088;43.238;23.110;2023-07-31T04:25:42;96099.50;;;25.52;63.51
39363;BME280;25088;43.238;23.110;2023-07-31T04:28:08;96086.09;;;25.42;63.52
39363;BME280;25088;43.238;23.110;2023-07-31T04:30:33;96100.59;;;25.47;62.68
39363;BME280;25088;43.238;23.110;2023-07-31T04:32:59;96101.41;;;25.48;61.95
39363;BME280;25088;43.238;23.110;2023-07-31T04:35:24;96100.06;;;25.26;64.00
39363;BME280;25088;43.238;23.110;2023-07-31T04:37:50;96094.75;;;25.21;66.33
39363;BME280;25088;43.238;23.110;2023-07-31T04:40:16;96090.78;;;25.22;66.04
39363;BME280;25088;43.238;23.110;2023-07-31T04:42:41;96095.00;;;25.16;66.33
39363;BME280;25088;43.238;23.110;2023-07-31T04:45:08;96099.72;;;25.12;66.15
39363;BME280;25088;43.238;23.110;2023-07-31T04:47:34;96088.97;;;25.14;66.32
39363;BME280;25088;43.238;23.110;2023-07-31T04:49:59;96092.03;;;25.24;66.39
39363;BME280;25088;43.238;23.110;2023-07-31T04:52:25;96090.44;;;25.23;64.10
39363;BME280;25088;43.238;23.110;2023-07-31T04:54:50;96089.69;;;25.11;64.95
39363;BME280;25088;43.238;23.110;2023-07-31T04:57:16;96097.25;;;25.10;65.26
39363;BME280;25088;43.238;23.110;2023-07-31T04:59:41;96095.75;;;25.13;66.11
39363;BME280;25088;43.238;23.110;2023-07-31T05:02:11;96093.59;;;25.22;66.37
39363;BME280;25088;43.238;23.110;2023-07-31T05:04:37;96085.28;;;25.41;65.43
39363;BME280;25088;43.238;23.110;2023-07-31T05:07:03;96090.28;;;25.67;64.62
39363;BME280;25088;43.238;23.110;2023-07-31T05:09:28;96089.56;;;25.86;63.20
39363;BME280;25088;43.238;23.110;2023-07-31T05:11:54;96090.75;;;26.24;61.82
39363;BME280;25088;43.238;23.110;2023-07-31T05:14:19;96106.47;;;26.48;60.93
39363;BME280;25088;43.238;23.110;2023-07-31T05:16:45;96095.63;;;26.66;59.36
39363;BME280;25088;43.238;23.110;2023-07-31T05:19:11;96088.34;;;26.84;58.89
39363;BME280;25088;43.238;23.110;2023-07-31T05:21:36;96095.00;;;27.18;57.14
39363;BME280;25088;43.238;23.110;2023-07-31T05:24:02;96087.53;;;27.26;55.57
39363;BME280;25088;43.238;23.110;2023-07-31T05:26:27;96094.38;;;27.51;53.01
39363;BME280;25088;43.238;23.110;2023-07-31T05:28:53;96096.31;;;27.74;52.49
39363;BME280;25088;43.238;23.110;2023-07-31T05:31:18;96101.16;;;28.03;51.24
39363;BME280;25088;43.238;23.110;2023-07-31T05:33:44;96094.53;;;28.15;50.53
39363;BME280;25088;43.238;23.110;2023-07-31T05:36:09;96093.94;;;28.32;50.11
39363;BME280;25088;43.238;23.110;2023-07-31T05:38:35;96098.19;;;28.49;48.96
39363;BME280;25088;43.238;23.110;2023-07-31T05:41:00;96090.78;;;28.68;48.24
39363;BME280;25088;43.238;23.110;2023-07-31T05:43:26;96089.91;;;28.60;47.79
39363;BME280;25088;43.238;23.110;2023-07-31T05:45:51;96084.78;;;28.69;47.12
39363;BME280;25088;43.238;23.110;2023-07-31T05:48:17;96099.69;;;29.10;45.67
39363;BME280;25088;43.238;23.110;2023-07-31T05:50:43;96102.91;;;29.13;45.59
39363;BME280;25088;43.238;23.110;2023-07-31T05:53:09;96091.50;;;29.35;45.00
39363;BME280;25088;43.238;23.110;2023-07-31T05:55:35;96099.44;;;29.71;43.80
39363;BME280;25088;43.238;23.110;2023-07-31T05:58:01;96089.53;;;29.40;42.27
39363;BME280;25088;43.238;23.110;2023-07-31T06:00:27;96092.41;;;29.50;41.66
39363;BME280;25088;43.238;23.110;2023-07-31T06:02:53;96096.44;;;29.53;41.55
39363;BME280;25088;43.238;23.110;2023-07-31T06:05:18;96107.69;;;29.53;41.27
39363;BME280;25088;43.238;23.110;2023-07-31T06:07:44;96111.97;;;29.36;41.27
39363;BME280;25088;43.238;23.110;2023-07-31T06:10:09;96110.41;;;29.42;41.08
39363;BME280;25088;43.238;23.110;2023-07-31T06:12:35;96104.75;;;29.39;40.48
39363;BME280;25088;43.238;23.110;2023-07-31T06:15:02;96113.31;;;29.49;40.58
39363;BME280;25088;43.238;23.110;2023-07-31T06:17:28;96102.69;;;29.76;40.44
39363;BME280;25088;43.238;23.110;2023-07-31T06:19:54;96107.97;;;29.85;39.83
39363;BME280;25088;43.238;23.110;2023-07-31T06:22:19;96113.38;;;30.11;40.77
39363;BME280;25088;43.238;23.110;2023-07-31T06:24:46;96115.84;;;30.17;39.63
39363;BME280;25088;43.238;23.110;2023-07-31T06:27:12;96123.09;;;30.18;39.79
39363;BME280;25088;43.238;23.110;2023-07-31T06:29:37;96118.75;;;30.31;39.83
39363;BME280;25088;43.238;23.110;2023-07-31T06:32:03;96117.31;;;30.69;39.71
39363;BME280;25088;43.238;23.110;2023-07-31T06:34:29;96107.59;;;30.56;38.41
39363;BME280;25088;43.238;23.110;2023-07-31T06:36:55;96121.75;;;30.70;38.58
39363;BME280;25088;43.238;23.110;2023-07-31T06:39:21;96113.53;;;30.36;38.38
39363;BME280;25088;43.238;23.110;2023-07-31T06:41:47;96116.03;;;30.49;38.63
39363;BME280;25088;43.238;23.110;2023-07-31T06:44:12;96118.75;;;30.38;38.79
39363;BME280;25088;43.238;23.110;2023-07-31T06:46:37;96113.13;;;30.38;38.27
39363;BME280;25088;43.238;23.110;2023-07-31T06:49:03;96121.19;;;30.36;39.12
39363;BME280;25088;43.238;23.110;2023-07-31T06:51:28;96116.88;;;30.67;38.19
39363;BME280;25088;43.238;23.110;2023-07-31T06:53:57;96115.34;;;30.73;38.62
39363;BME280;25088;43.238;23.110;2023-07-31T06:56:22;96127.72;;;30.61;39.06
39363;BME280;25088;43.238;23.110;2023-07-31T06:58:48;96105.81;;;30.19;38.83
39363;BME280;25088;43.238;23.110;2023-07-31T07:01:13;96117.31;;;30.73;38.63
39363;BME280;25088;43.238;23.110;2023-07-31T07:03:38;96115.75;;;30.82;38.54
39363;BME280;25088;43.238;23.110;2023-07-31T07:06:04;96121.88;;;31.09;37.77
39363;BME280;25088;43.238;23.110;2023-07-31T07:08:29;96115.75;;;30.75;37.17
39363;BME280;25088;43.238;23.110;2023-07-31T07:10:55;96121.81;;;30.84;37.46
39363;BME280;25088;43.238;23.110;2023-07-31T07:13:21;96124.34;;;30.27;37.84
39363;BME280;25088;43.238;23.110;2023-07-31T07:15:50;96130.03;;;30.38;37.61
39363;BME280;25088;43.238;23.110;2023-07-31T07:18:16;96120.41;;;30.46;36.93
39363;BME280;25088;43.238;23.110;2023-07-31T07:20:51;96114.19;;;31.03;36.73
39363;BME280;25088;43.238;23.110;2023-07-31T07:23:17;96114.47;;;30.66;37.41
39363;BME280;25088;43.238;23.110;2023-07-31T07:25:44;96113.38;;;31.02;37.63
39363;BME280;25088;43.238;23.110;2023-07-31T07:28:10;96117.94;;;31.39;36.69
39363;BME280;25088;43.238;23.110;2023-07-31T07:30:36;96111.88;;;31.33;36.89
39363;BME280;25088;43.238;23.110;2023-07-31T07:33:01;96114.69;;;31.48;35.81
39363;BME280;25088;43.238;23.110;2023-07-31T07:35:27;96105.84;;;31.78;35.37
39363;BME280;25088;43.238;23.110;2023-07-31T07:37:52;96115.47;;;32.12;35.29
39363;BME280;25088;43.238;23.110;2023-07-31T07:40:19;96099.38;;;31.99;35.32
39363;BME280;25088;43.238;23.110;2023-07-31T07:42:45;96120.78;;;31.85;35.88
39363;BME280;25088;43.238;23.110;2023-07-31T07:45:10;96125.97;;;31.48;35.72
39363;BME280;25088;43.238;23.110;2023-07-31T07:47:36;96120.69;;;31.14;36.63
39363;BME280;25088;43.238;23.110;2023-07-31T07:50:01;96120.63;;;30.89;36.15
39363;BME280;25088;43.238;23.110;2023-07-31T07:52:27;96110.69;;;31.38;36.10
39363;BME280;25088;43.238;23.110;2023-07-31T07:54:53;96113.81;;;31.08;36.70
39363;BME280;25088;43.238;23.110;2023-07-31T07:57:18;96104.22;;;31.41;36.25
39363;BME280;25088;43.238;23.110;2023-07-31T07:59:44;96110.09;;;30.75;37.14
39363;BME280;25088;43.238;23.110;2023-07-31T08:02:09;96132.84;;;31.54;37.10
39363;BME280;25088;43.238;23.110;2023-07-31T08:04:34;96133.25;;;31.59;36.81
39363;BME280;25088;43.238;23.110;2023-07-31T08:07:00;96118.72;;;31.97;36.70
39363;BME280;25088;43.238;23.110;2023-07-31T08:09:25;96121.53;;;32.14;36.60
39363;BME280;25088;43.238;23.110;2023-07-31T08:11:51;96113.44;;;32.16;36.27
39363;BME280;25088;43.238;23.110;2023-07-31T08:14:16;96123.13;;;32.33;35.90
39363;BME280;25088;43.238;23.110;2023-07-31T08:16:42;96111.47;;;31.35;36.50
39363;BME280;25088;43.238;23.110;2023-07-31T08:19:07;96108.94;;;30.98;37.39
39363;BME280;25088;43.238;23.110;2023-07-31T08:21:33;96115.84;;;31.25;37.12
39363;BME280;25088;43.238;23.110;2023-07-31T08:23:58;96105.84;;;31.92;36.64
39363;BME280;25088;43.238;23.110;2023-07-31T08:26:24;96105.84;;;31.81;36.41
39363;BME280;25088;43.238;23.110;2023-07-31T08:28:49;96096.88;;;32.36;35.93
39363;BME280;25088;43.238;23.110;2023-07-31T08:31:14;96098.28;;;32.91;35.52
39363;BME280;25088;43.238;23.110;2023-07-31T08:33:40;96101.19;;;32.73;34.32
39363;BME280;25088;43.238;23.110;2023-07-31T08:36:06;96105.53;;;32.92;35.16
39363;BME280;25088;43.238;23.110;2023-07-31T08:38:31;96104.16;;;33.22;34.62
39363;BME280;25088;43.238;23.110;2023-07-31T08:40:57;96114.31;;;33.12;34.57
39363;BME280;25088;43.238;23.110;2023-07-31T08:43:25;96111.75;;;33.35;33.80
39363;BME280;25088;43.238;23.110;2023-07-31T08:45:51;96117.78;;;33.93;33.39
39363;BME280;25088;43.238;23.110;2023-07-31T08:48:17;96111.34;;;33.89;33.08
39363;BME280;25088;43.238;23.110;2023-07-31T08:50:44;96108.75;;;33.64;33.21
39363;BME280;25088;43.238;23.110;2023-07-31T08:53:10;96119.88;;;33.85;32.34
39363;BME280;25088;43.238;23.110;2023-07-31T08:55:37;96107.31;;;33.86;31.87
39363;BME280;25088;43.238;23.110;2023-07-31T08:58:04;96110.69;;;33.70;32.01
39363;BME280;25088;43.238;23.110;2023-07-31T09:00:32;96099.38;;;33.70;32.82
39363;BME280;25088;43.238;23.110;2023-07-31T09:03:09;96110.44;;;34.03;33.14
39363;BME280;25088;43.238;23.110;2023-07-31T09:05:36;96114.50;;;34.02;31.95
39363;BME280;25088;43.238;23.110;2023-07-31T09:08:03;96106.81;;;34.40;32.26
39363;BME280;25088;43.238;23.110;2023-07-31T09:10:29;96108.31;;;34.14;32.58
39363;BME280;25088;43.238;23.110;2023-07-31T09:12:55;96112.69;;;34.22;32.48
39363;BME280;25088;43.238;23.110;2023-07-31T09:15:21;96110.81;;;34.46;31.58
39363;BME280;25088;43.238;23.110;2023-07-31T09:17:58;96116.34;;;33.74;32.33
39363;BME280;25088;43.238;23.110;2023-07-31T09:20:24;96123.09;;;33.87;32.69
39363;BME280;25088;43.238;23.110;2023-07-31T09:22:50;96125.16;;;34.28;32.34
39363;BME280;25088;43.238;23.110;2023-07-31T09:25:17;96109.13;;;33.66;32.30
39363;BME280;25088;43.238;23.110;2023-07-31T09:27:54;96106.84;;;33.99;33.15
39363;BME280;25088;43.238;23.110;2023-07-31T09:30:21;96095.59;;;33.88;32.09
39363;BME280;25088;43.238;23.110;2023-07-31T09:32:47;96099.19;;;32.66;33.39
39363;BME280;25088;43.238;23.110;2023-07-31T09:35:30;96101.16;;;32.77;33.83
39363;BME280;25088;43.238;23.110;2023-07-31T09:38:05;96102.09;;;33.33;33.18
39363;BME280;25088;43.238;23.110;2023-07-31T09:40:32;96100.25;;;33.64;33.23
39363;BME280;25088;43.238;23.110;2023-07-31T09:43:00;96097.50;;;33.53;33.51
39363;BME280;25088;43.238;23.110;2023-07-31T09:45:26;96089.94;;;33.84;32.92
39363;BME280;25088;43.238;23.110;2023-07-31T09:47:53;96096.09;;;33.76;32.35
39363;BME280;25088;43.238;23.110;2023-07-31T09:50:24;96083.38;;;34.36;32.55
39363;BME280;25088;43.238;23.110;2023-07-31T09:52:51;96080.72;;;33.77;33.02
39363;BME280;25088;43.238;23.110;2023-07-31T09:55:17;96101.22;;;33.36;32.18
39363;BME280;25088;43.238;23.110;2023-07-31T09:57:48;96099.38;;;33.11;32.73
39363;BME280;25088;43.238;23.110;2023-07-31T10:00:18;96095.72;;;33.14;33.61
39363;BME280;25088;43.238;23.110;2023-07-31T10:02:47;96086.91;;;34.09;33.19
39363;BME280;25088;43.238;23.110;2023-07-31T10:05:14;96090.09;;;33.66;33.82
39363;BME280;25088;43.238;23.110;2023-07-31T10:07:53;96086.31;;;33.32;34.17
39363;BME280;25088;43.238;23.110;2023-07-31T10:10:20;96089.66;;;33.16;34.96
39363;BME280;25088;43.238;23.110;2023-07-31T10:12:48;96089.97;;;33.29;33.94
39363;BME280;25088;43.238;23.110;2023-07-31T10:15:15;96094.97;;;33.07;35.25
39363;BME280;25088;43.238;23.110;2023-07-31T10:17:41;96093.25;;;33.24;34.76
39363;BME280;25088;43.238;23.110;2023-07-31T10:20:07;96086.22;;;32.80;34.44
39363;BME280;25088;43.238;23.110;2023-07-31T10:22:34;96085.16;;;32.41;34.88
39363;BME280;25088;43.238;23.110;2023-07-31T10:25:03;96088.72;;;32.56;34.43
39363;BME280;25088;43.238;23.110;2023-07-31T10:27:34;96080.16;;;32.78;34.09
39363;BME280;25088;43.238;23.110;2023-07-31T10:30:03;96077.47;;;32.53;35.61
39363;BME280;25088;43.238;23.110;2023-07-31T10:32:29;96078.81;;;33.07;34.99
39363;BME280;25088;43.238;23.110;2023-07-31T10:34:55;96082.94;;;33.51;34.12
39363;BME280;25088;43.238;23.110;2023-07-31T10:39:59;96072.50;;;33.89;32.99
39363;BME280;25088;43.238;23.110;2023-07-31T10:42:36;96077.97;;;33.66;33.70
39363;BME280;25088;43.238;23.110;2023-07-31T10:45:08;96082.50;;;33.56;33.81
39363;BME280;25088;43.238;23.110;2023-07-31T10:47:46;96083.56;;;33.21;34.38
39363;BME280;25088;43.238;23.110;2023-07-31T10:50:20;96078.09;;;32.85;34.50
39363;BME280;25088;43.238;23.110;2023-07-31T10:52:53;96071.03;;;32.45;35.32
39363;BME280;25088;43.238;23.110;2023-07-31T10:55:28;96084.31;;;32.52;36.09
39363;BME280;25088;43.238;23.110;2023-07-31T10:57:55;96071.44;;;32.40;35.63
39363;BME280;25088;43.238;23.110;2023-07-31T11:00:24;96065.41;;;32.27;36.52
39363;BME280;25088;43.238;23.110;2023-07-31T11:03:01;96066.31;;;33.60;35.01
39363;BME280;25088;43.238;23.110;2023-07-31T11:05:46;96076.81;;;33.01;35.25
39363;BME280;25088;43.238;23.110;2023-07-31T11:10:49;96079.81;;;32.61;35.34
39363;BME280;25088;43.238;23.110;2023-07-31T11:13:15;96076.19;;;32.61;35.57
39363;BME280;25088;43.238;23.110;2023-07-31T11:15:40;96077.47;;;32.49;36.32
39363;BME280;25088;43.238;23.110;2023-07-31T11:18:06;96077.13;;;32.29;36.01
39363;BME280;25088;43.238;23.110;2023-07-31T11:20:34;96070.28;;;32.20;36.25
39363;BME280;25088;43.238;23.110;2023-07-31T11:23:05;96071.88;;;32.28;36.50
39363;BME280;25088;43.238;23.110;2023-07-31T11:25:31;96067.47;;;32.20;36.08
39363;BME280;25088;43.238;23.110;2023-07-31T11:28:08;96062.19;;;32.36;35.77
39363;BME280;25088;43.238;23.110;2023-07-31T11:30:34;96067.81;;;33.20;35.04
39363;BME280;25088;43.238;23.110;2023-07-31T11:33:04;96056.56;;;33.13;34.95
39363;BME280;25088;43.238;23.110;2023-07-31T11:35:45;96058.44;;;32.57;35.71
39363;BME280;25088;43.238;23.110;2023-07-31T11:38:27;96072.06;;;32.83;35.99
39363;BME280;25088;43.238;23.110;2023-07-31T11:40:55;96063.97;;;32.82;34.16
39363;BME280;25088;43.238;23.110;2023-07-31T11:43:21;96073.03;;;32.48;35.38
39363;BME280;25088;43.238;23.110;2023-07-31T11:45:48;96054.91;;;32.31;34.91
39363;BME280;25088;43.238;23.110;2023-07-31T11:48:28;96061.03;;;33.07;34.90
39363;BME280;25088;43.238;23.110;2023-07-31T11:50:57;96059.09;;;34.35;32.78
39363;BME280;25088;43.238;23.110;2023-07-31T11:53:44;96049.41;;;33.98;32.04
39363;BME280;25088;43.238;23.110;2023-07-31T11:56:14;96050.09;;;34.06;32.17
39363;BME280;25088;43.238;23.110;2023-07-31T11:58:43;96047.78;;;34.31;32.50
39363;BME280;25088;43.238;23.110;2023-07-31T12:01:11;96049.63;;;35.10;29.84
39363;BME280;25088;43.238;23.110;2023-07-31T12:03:37;96047.75;;;35.77;30.54
39363;BME280;25088;43.238;23.110;2023-07-31T12:06:03;96041.28;;;36.20;29.85
39363;BME280;25088;43.238;23.110;2023-07-31T12:08:29;96036.81;;;36.42;29.75
39363;BME280;25088;43.238;23.110;2023-07-31T12:11:02;96032.78;;;36.60;29.50
39363;BME280;25088;43.238;23.110;2023-07-31T12:13:30;96039.19;;;36.64;29.21
39363;BME280;25088;43.238;23.110;2023-07-31T12:15:58;96042.44;;;36.03;28.94
39363;BME280;25088;43.238;23.110;2023-07-31T12:18:26;96036.94;;;35.18;30.34
39363;BME280;25088;43.238;23.110;2023-07-31T12:20:56;96046.38;;;34.50;31.45
39363;BME280;25088;43.238;23.110;2023-07-31T12:23:27;96037.06;;;33.74;33.13
39363;BME280;25088;43.238;23.110;2023-07-31T12:28:27;96039.97;;;33.11;33.41
39363;BME280;25088;43.238;23.110;2023-07-31T12:30:57;96035.41;;;32.65;33.62
39363;BME280;25088;43.238;23.110;2023-07-31T12:33:24;96031.22;;;32.91;34.00
39363;BME280;25088;43.238;23.110;2023-07-31T12:35:55;96028.81;;;33.46;33.40
39363;BME280;25088;43.238;23.110;2023-07-31T12:38:23;96024.97;;;33.70;33.31
39363;BME280;25088;43.238;23.110;2023-07-31T12:40:49;96021.66;;;33.75;33.21
39363;BME280;25088;43.238;23.110;2023-07-31T12:43:16;96017.97;;;34.19;32.57
39363;BME280;25088;43.238;23.110;2023-07-31T12:45:41;96029.41;;;33.71;32.37
39363;BME280;25088;43.238;23.110;2023-07-31T12:48:06;96025.59;;;33.88;32.48
39363;BME280;25088;43.238;23.110;2023-07-31T12:50:32;96025.34;;;35.09;30.80
39363;BME280;25088;43.238;23.110;2023-07-31T12:52:57;96023.34;;;34.44;31.21
39363;BME280;25088;43.238;23.110;2023-07-31T12:55:23;96028.19;;;34.48;31.31
39363;BME280;25088;43.238;23.110;2023-07-31T12:57:49;96007.94;;;35.07;30.77
39363;BME280;25088;43.238;23.110;2023-07-31T13:00:15;96012.44;;;35.04;30.98
39363;BME280;25088;43.238;23.110;2023-07-31T13:02:40;96004.75;;;34.74;31.16